Huvudsida
METAR-TAF:

METAR-TAF

Flygplatser :

Mehrabads flygplats

Teheran, Iran

latitud: 35-41N, longitud: 051-21E, höjd: 1204 m

Aktuellt väderrapport

Denna rapport gjordes för 19 minuter sedan, klockan 09:30 UTC
Vind 8 kt från syd/sydost
Temperatur 26°C
Fuktighet 24%
Tryck 1018 hPa
Sikt 10 km eller mer
Få moln på en höjd av 4000 ft

METAR: OIII 250930Z 16008KT 9999 FEW040 26/04 Q1018 A3007

Tid: 13:19 (09:49 UTC)

Väderprognos

Denna rapport gjordes för 4 timmar och 19 minuter sedan, klockan 05:30 UTC
Prognos gäller från 25 kl. 06 UTC till 26 kl. 12 UTC
Vind 6 kt från sydost
Sikt 10 km eller mer
Inga moln under 1 500 m eller inga cumulonimbus
Temporärt
från 25 kl. 07 UTC till 25 kl. 12 UTC
Vind 17 kt från sydost

TAF: OIII 250530Z 2506/2612 14003MPS CAVOK TEMPO 2507/2512 14009MPS

Aktuella väderrapporter och prognoser från 4000 flygplatser (METAR- och TAF-rapporter).

De tillgängliga stationerna syns som gula och röda prickar på kartan.

För musen över prickarna för att se namnen på stationerna.

Klicka sedan för att få väderrapporter och prognoser.

För att ändra kartan: Klicka på de gröna knapparna med ett svart kors på för att zooma in; den gröna knappen med ett streck på för att zooma ut; eller på de gröna pilarna för angränsande kartor.


METAR-TAF: